Time;durP1;ratioP1;P1;durP2;ratioP2;P2;SDS_P1;SDS_P2;PMS_P1;PMS_P2;Temp;Humidity;BMP_temperature;BMP_pressure;BME280_temperature;BME280_humidity;BME280_pressure;Samples;Min_cycle;Max_cycle;Signal;HPM_P1;HPM_P2
2022/05/21 00:00:41;;;;;;;0.50;0.50;;;;;;;4.75;55.57;98969.50;4995788;28;20046;-85
2022/05/21 00:03:11;;;;;;;0.50;0.50;;;;;;;4.53;55.98;98971.56;4995450;28;20057;-86
2022/05/21 00:05:40;;;;;;;0.60;0.60;;;;;;;4.57;56.20;98986.19;4979321;28;20525;-87
2022/05/21 00:08:08;;;;;;;0.50;0.50;;;;;;;4.42;56.87;98969.53;4962398;28;20061;-87
2022/05/21 00:10:36;;;;;;;0.50;0.50;;;;;;;4.49;57.39;98983.72;4995962;28;20058;-87
2022/05/21 00:13:04;;;;;;;0.60;0.60;;;;;;;4.37;56.52;98966.66;4977975;28;20050;-85
2022/05/21 00:15:34;;;;;;;0.50;0.50;;;;;;;4.26;56.65;98968.91;4978508;28;20046;-86
2022/05/21 00:18:02;;;;;;;0.50;0.50;;;;;;;4.41;56.25;98979.41;4978724;28;20046;-86
2022/05/21 00:20:47;;;;;;;0.60;0.60;;;;;;;4.25;57.48;98953.06;4995470;28;20057;-86
2022/05/21 00:23:29;;;;;;;0.60;0.60;;;;;;;4.35;56.33;98977.53;4995828;28;20489;-88
2022/05/21 00:26:00;;;;;;;0.50;0.50;;;;;;;4.48;56.07;98988.25;4984442;28;20046;-86
2022/05/21 00:28:28;;;;;;;0.60;0.60;;;;;;;4.43;55.43;98973.84;5017580;28;20057;-86
2022/05/21 00:30:56;;;;;;;0.60;0.60;;;;;;;4.42;55.46;98972.22;4982119;28;20104;-87
2022/05/21 00:33:26;;;;;;;0.50;0.50;;;;;;;4.54;55.24;98989.28;5001822;28;20517;-86
2022/05/21 00:35:53;;;;;;;0.45;0.45;;;;;;;4.50;54.94;98974.66;4995047;28;20480;-86
2022/05/21 00:38:20;;;;;;;0.60;0.60;;;;;;;4.51;55.10;98977.16;5001410;28;20104;-87
2022/05/21 00:40:48;;;;;;;0.60;0.60;;;;;;;4.61;54.13;98975.88;5003729;28;20105;-86
2022/05/21 00:43:54;;;;;;;0.60;0.60;;;;;;;4.69;53.55;98975.69;4986150;28;20050;-88
2022/05/21 00:46:34;;;;;;;0.40;0.40;;;;;;;4.70;53.48;98963.97;4931546;29;20059;-85
2022/05/21 00:49:03;;;;;;;0.50;0.50;;;;;;;4.70;53.54;98962.13;4918633;29;20048;-86
2022/05/21 00:51:37;;;;;;;0.50;0.50;;;;;;;4.55;53.44;98940.94;4897113;29;20063;-87
2022/05/21 00:54:05;;;;;;;0.60;0.60;;;;;;;4.54;53.67;98966.03;4915522;29;20527;-88
2022/05/21 00:56:37;;;;;;;0.50;0.50;;;;;;;4.56;53.81;98949.81;4893246;29;20060;-88
2022/05/21 01:01:54;;;;;;;0.40;0.40;;;;;;;4.52;53.70;98941.38;4922015;29;20056;-87
2022/05/21 01:04:22;;;;;;;0.60;0.60;;;;;;;4.54;53.89;98954.53;4934251;29;20067;-86
2022/05/21 01:06:49;;;;;;;0.50;0.50;;;;;;;4.46;54.12;98952.88;4915058;29;20056;-87
2022/05/21 01:09:16;;;;;;;0.60;0.60;;;;;;;4.41;54.21;98951.88;4898935;29;20063;-86
2022/05/21 01:11:43;;;;;;;0.60;0.60;;;;;;;4.46;54.04;98950.22;4915492;29;20058;-87
2022/05/21 01:14:11;;;;;;;0.50;0.50;;;;;;;4.41;54.21;98941.19;4884130;29;20055;-86
2022/05/21 01:16:39;;;;;;;0.60;0.60;;;;;;;4.47;53.75;98941.16;4916363;29;20059;-86
2022/05/21 01:19:09;;;;;;;0.60;0.60;;;;;;;4.41;53.66;98925.16;4930053;29;20056;-83
2022/05/21 01:21:37;;;;;;;0.60;0.60;;;;;;;4.43;53.69;98926.59;4943382;28;20507;-82
2022/05/21 01:24:05;;;;;;;0.60;0.60;;;;;;;4.52;53.86;98945.91;4991296;28;20129;-83
2022/05/21 01:26:33;;;;;;;0.60;0.60;;;;;;;4.51;53.52;98937.06;4976962;28;20417;-83
2022/05/21 01:29:03;;;;;;;0.70;0.70;;;;;;;4.52;53.35;98929.84;5000280;28;20405;-84
2022/05/21 01:31:32;;;;;;;0.50;0.50;;;;;;;4.55;53.21;98940.13;4990058;28;20046;-83
2022/05/21 01:34:00;;;;;;;0.50;0.50;;;;;;;4.67;53.15;98951.03;5004564;28;20072;-84
2022/05/21 01:36:27;;;;;;;0.50;0.50;;;;;;;4.49;53.34;98920.41;4993714;28;20058;-85
2022/05/21 01:38:55;;;;;;;0.45;0.45;;;;;;;4.61;53.25;98936.63;4993527;28;20142;-85
2022/05/21 01:41:22;;;;;;;0.47;0.47;;;;;;;4.64;53.09;98952.25;4959854;28;20567;-87
2022/05/21 01:46:35;;;;;;;0.40;0.40;;;;;;;4.66;53.24;98930.66;4993251;28;20537;-83
2022/05/21 01:49:02;;;;;;;0.60;0.60;;;;;;;4.65;52.99;98923.66;4960621;28;20108;-84
2022/05/21 01:51:29;;;;;;;0.60;0.60;;;;;;;4.64;52.98;98912.16;4959791;28;20073;-85
2022/05/21 01:53:57;;;;;;;0.50;0.50;;;;;;;4.78;52.94;98931.66;4992689;28;20357;-85
2022/05/21 01:56:24;;;;;;;0.60;0.60;;;;;;;4.87;52.58;98940.28;4975740;28;20129;-87
2022/05/21 01:58:51;;;;;;;0.60;0.60;;;;;;;4.92;52.51;98941.31;4992250;28;20105;-87
2022/05/21 02:01:20;;;;;;;0.50;0.50;;;;;;;4.88;52.39;98944.59;4992671;28;20054;-85
2022/05/21 02:03:47;;;;;;;0.50;0.50;;;;;;;4.88;52.58;98941.94;4975318;28;20145;-86
2022/05/21 02:06:14;;;;;;;0.50;0.50;;;;;;;4.86;52.70;98955.53;4975646;28;20203;-88
2022/05/21 02:08:41;;;;;;;0.60;0.60;;;;;;;4.85;52.62;98945.84;4993536;28;20050;-85
2022/05/21 02:11:08;;;;;;;0.47;0.47;;;;;;;4.86;52.70;98943.97;4993216;28;20587;-86
2022/05/21 02:13:36;;;;;;;0.55;0.55;;;;;;;4.85;52.31;98940.50;4951246;28;20054;-86
2022/05/21 02:16:03;;;;;;;0.57;0.57;;;;;;;4.86;52.31;98941.31;4956037;28;20051;-87
2022/05/21 02:18:31;;;;;;;0.50;0.50;;;;;;;4.88;52.27;98939.25;4940660;28;20051;-86
2022/05/21 02:20:58;;;;;;;0.60;0.60;;;;;;;4.92;52.22;98935.16;4956629;28;20053;-88
2022/05/21 02:23:25;;;;;;;0.60;0.60;;;;;;;4.82;51.86;98910.69;4956762;28;20078;-87
2022/05/21 02:25:52;;;;;;;0.60;0.60;;;;;;;4.90;51.97;98931.84;4973411;28;20051;-89
2022/05/21 02:28:21;;;;;;;0.52;0.52;;;;;;;5.02;52.07;98938.19;4973476;28;20098;-89
2022/05/21 02:30:48;;;;;;;0.63;0.63;;;;;;;5.04;52.25;98933.47;4955414;28;20085;-87
2022/05/21 02:33:16;;;;;;;0.60;0.60;;;;;;;5.12;51.88;98940.44;4958179;28;20046;-86
2022/05/21 02:35:43;;;;;;;0.60;0.60;;;;;;;5.28;51.91;98944.50;4974593;28;20046;-87
2022/05/21 02:40:56;;;;;;;0.50;0.50;;;;;;;5.39;51.88;98944.66;4973604;28;20051;-86
2022/05/21 02:43:24;;;;;;;0.68;0.68;;;;;;;5.43;53.64;98943.19;4958377;28;20047;-88
2022/05/21 02:45:51;;;;;;;0.60;0.60;;;;;;;5.41;52.74;98942.56;4976988;28;20047;-87
2022/05/21 02:48:18;;;;;;;0.60;0.60;;;;;;;5.40;53.18;98937.44;4975249;28;20061;-86
2022/05/21 02:50:46;;;;;;;0.50;0.50;;;;;;;5.38;53.37;98936.84;4983200;28;20068;-84
2022/05/21 02:53:16;;;;;;;0.60;0.60;;;;;;;5.35;54.02;98931.91;4991650;28;20063;-86
2022/05/21 02:55:44;;;;;;;0.55;0.55;;;;;;;5.34;53.84;98935.59;4984518;28;20120;-84
2022/05/21 02:58:12;;;;;;;0.50;0.50;;;;;;;5.24;54.36;98925.38;4975182;28;20112;-85
2022/05/21 03:00:40;;;;;;;0.50;0.50;;;;;;;5.08;54.24;98905.25;4959526;28;20050;-87
2022/05/21 03:03:08;;;;;;;0.68;0.68;;;;;;;5.26;53.78;98933.19;4991710;28;20057;-86
2022/05/21 03:05:35;;;;;;;0.63;0.63;;;;;;;5.18;54.27;98923.53;4974707;28;20120;-85
2022/05/21 03:10:20;;;;;;;0.60;0.60;;;;;;;5.22;54.33;98938.97;4992105;28;20050;-87
2022/05/21 03:10:54;;;;;;;0.60;0.60;;;;;;;5.18;53.42;98920.84;4996971;28;20104;-85
2022/05/21 03:13:22;;;;;;;0.50;0.50;;;;;;;5.11;53.05;98912.84;4986524;28;20464;-86
2022/05/21 03:15:49;;;;;;;0.60;0.60;;;;;;;5.26;52.74;98912.59;4990581;28;20579;-84
2022/05/21 03:18:17;;;;;;;0.55;0.55;;;;;;;5.40;52.63;98927.56;4987642;28;20050;-83
2022/05/21 03:20:44;;;;;;;0.60;0.60;;;;;;;5.51;52.27;98907.31;4999905;28;20108;-84
2022/05/21 03:23:12;;;;;;;0.68;0.68;;;;;;;5.59;51.83;98893.69;4974601;28;20105;-85
2022/05/21 03:25:40;;;;;;;0.60;0.60;;;;;;;5.72;51.81;98895.50;4991873;28;20069;-86
2022/05/21 03:28:07;;;;;;;0.50;0.50;;;;;;;5.74;51.78;98896.06;4955609;28;20043;-86
2022/05/21 03:30:35;;;;;;;0.50;0.50;;;;;;;5.86;51.32;98913.09;4972409;28;20450;-89
2022/05/21 03:33:03;;;;;;;0.70;0.70;;;;;;;5.82;51.45;98890.47;4955429;28;20058;-86
2022/05/21 03:35:35;;;;;;;0.60;0.60;;;;;;;6.00;51.32;98905.84;4940742;28;20046;-84
2022/05/21 03:38:02;;;;;;;0.60;0.60;;;;;;;5.86;51.25;98883.63;4972625;28;20050;-88
2022/05/21 03:40:31;;;;;;;0.60;0.60;;;;;;;6.11;51.34;98908.84;4955122;28;20050;-87
2022/05/21 03:42:58;;;;;;;0.70;0.70;;;;;;;6.20;51.09;98905.69;4971285;28;20053;-88
2022/05/21 03:45:27;;;;;;;0.50;0.50;;;;;;;6.31;50.03;98908.69;4972805;28;20051;-91
2022/05/21 03:47:55;;;;;;;0.65;0.65;;;;;;;6.33;49.60;98893.19;4972365;28;20051;-89
2022/05/21 03:50:25;;;;;;;0.60;0.60;;;;;;;6.47;49.34;98892.03;4972914;28;20051;-83
2022/05/21 03:52:52;;;;;;;0.63;0.63;;;;;;;6.58;49.13;98893.16;4955340;28;20050;-87
2022/05/21 03:55:19;;;;;;;0.55;0.55;;;;;;;6.86;48.84;98914.97;4985249;28;20054;-86
2022/05/21 03:57:46;;;;;;;0.60;0.60;;;;;;;6.85;48.42;98886.50;4971327;28;20047;-89
2022/05/21 04:00:16;;;;;;;0.60;0.60;;;;;;;7.10;48.25;98912.44;4955604;28;20194;-86
2022/05/21 04:02:43;;;;;;;0.60;0.60;;;;;;;7.25;47.58;98904.00;4955343;28;20058;-87
2022/05/21 04:05:11;;;;;;;0.60;0.60;;;;;;;7.33;46.93;98904.50;4964498;28;20112;-87
2022/05/21 04:07:39;;;;;;;0.60;0.60;;;;;;;7.35;46.32;98906.97;4976744;28;20047;-89
2022/05/21 04:10:10;;;;;;;0.60;0.60;;;;;;;7.41;46.66;98899.88;4975605;28;20105;-87
2022/05/21 04:12:38;;;;;;;0.60;0.60;;;;;;;7.60;46.66;98898.81;4991290;28;20050;-86
2022/05/21 04:15:06;;;;;;;0.70;0.70;;;;;;;7.68;45.43;98895.78;4989096;28;20046;-89
2022/05/21 04:17:35;;;;;;;0.60;0.60;;;;;;;7.67;45.12;98910.28;4992002;28;20528;-87
2022/05/21 04:20:04;;;;;;;0.50;0.50;;;;;;;7.60;45.18;98877.31;4989871;28;20077;-90
2022/05/21 04:22:31;;;;;;;0.60;0.60;;;;;;;7.69;44.96;98885.88;4991950;28;20093;-91
2022/05/21 04:24:59;;;;;;;0.60;0.60;;;;;;;7.66;44.41;98887.13;4991501;28;20101;-91
2022/05/21 04:27:26;;;;;;;0.70;0.70;;;;;;;7.76;45.07;98902.72;4991998;28;20509;-90
2022/05/21 04:29:54;;;;;;;0.60;0.60;;;;;;;7.84;44.66;98883.56;4990747;28;20078;-91
2022/05/21 04:32:21;;;;;;;0.60;0.60;;;;;;;8.02;44.97;98896.13;4974787;28;20057;-90
2022/05/21 04:34:48;;;;;;;0.60;0.60;;;;;;;8.17;44.96;98896.50;4992345;28;20061;-92
2022/05/21 04:37:15;;;;;;;0.60;0.60;;;;;;;8.25;44.43;98889.94;4992013;28;20054;-92
2022/05/21 04:39:43;;;;;;;0.60;0.60;;;;;;;8.31;43.98;98899.81;4991876;28;20046;-91
2022/05/21 04:42:10;;;;;;;0.60;0.60;;;;;;;8.30;44.52;98883.88;4991496;28;20050;-92
2022/05/21 04:44:37;;;;;;;0.63;0.63;;;;;;;8.52;44.44;98884.97;4994502;28;20061;-90
2022/05/21 04:47:05;;;;;;;0.60;0.60;;;;;;;8.58;43.92;98877.84;4995414;28;20039;-91
2022/05/21 04:49:34;;;;;;;0.50;0.50;;;;;;;8.59;43.47;98858.78;4995388;28;20137;-91
2022/05/21 04:52:03;;;;;;;0.60;0.60;;;;;;;8.81;43.90;98874.31;4995317;28;20058;-91
2022/05/21 04:54:31;;;;;;;0.60;0.60;;;;;;;8.98;43.81;98880.59;4995650;28;20528;-91
2022/05/21 04:56:58;;;;;;;0.60;0.60;;;;;;;8.79;43.26;98868.38;4998221;28;20050;-92
2022/05/21 04:59:26;;;;;;;0.52;0.52;;;;;;;8.97;42.76;98876.28;4998093;28;20046;-92
2022/05/21 05:01:53;;;;;;;0.60;0.60;;;;;;;8.91;42.96;98887.97;4998657;28;20046;-91
2022/05/21 05:04:21;;;;;;;0.60;0.60;;;;;;;8.87;43.22;98855.34;4998364;28;20068;-90
2022/05/21 05:06:48;;;;;;;0.50;0.50;;;;;;;9.07;43.03;98865.72;4995165;28;20057;-89
2022/05/21 05:09:21;;;;;;;0.60;0.60;;;;;;;9.00;43.33;98845.38;4994526;28;20070;-92
2022/05/21 05:11:49;;;;;;;0.50;0.50;;;;;;;9.05;43.04;98858.94;4978093;28;20100;-90
2022/05/21 05:14:17;;;;;;;0.50;0.50;;;;;;;9.15;42.11;98866.41;4995603;28;20101;-91
2022/05/21 05:16:45;;;;;;;0.60;0.60;;;;;;;9.09;42.34;98825.13;4993609;28;20042;-90
2022/05/21 05:19:17;;;;;;;0.50;0.50;;;;;;;9.27;42.13;98853.75;4993341;28;20098;-90
2022/05/21 05:21:44;;;;;;;0.60;0.60;;;;;;;9.36;41.83;98860.38;4994093;28;20057;-91
2022/05/21 05:24:11;;;;;;;0.60;0.60;;;;;;;9.48;41.31;98853.06;4944159;28;20050;-90
2022/05/21 05:26:38;;;;;;;0.50;0.50;;;;;;;9.64;41.64;98843.38;4993455;28;20113;-89
2022/05/21 05:29:06;;;;;;;0.60;0.60;;;;;;;9.66;41.26;98835.06;4996859;28;20038;-89
2022/05/21 05:31:33;;;;;;;0.50;0.50;;;;;;;9.85;40.99;98838.34;4998645;28;20050;-89
2022/05/21 05:34:00;;;;;;;0.60;0.60;;;;;;;9.86;40.68;98845.38;4980696;28;20054;-88
2022/05/21 05:36:28;;;;;;;0.50;0.50;;;;;;;9.88;40.71;98843.25;4994651;28;20046;-90
2022/05/21 05:38:59;;;;;;;0.60;0.60;;;;;;;9.86;40.59;98808.44;4995027;28;20050;-89
2022/05/21 05:41:29;;;;;;;0.60;0.60;;;;;;;10.01;41.02;98807.06;4994345;28;20513;-90
2022/05/21 05:43:57;;;;;;;0.60;0.60;;;;;;;10.08;40.57;98826.59;5004633;28;20042;-89
2022/05/21 05:46:25;;;;;;;0.60;0.60;;;;;;;10.27;41.27;98830.66;5002061;28;20031;-89
2022/05/21 05:48:52;;;;;;;0.50;0.50;;;;;;;10.44;41.45;98833.38;5011762;28;20073;-91
2022/05/21 05:51:19;;;;;;;0.60;0.60;;;;;;;10.62;41.18;98821.50;4996859;28;20070;-91
2022/05/21 05:53:47;;;;;;;0.60;0.60;;;;;;;10.67;40.27;98820.75;5004474;28;20039;-91
2022/05/21 05:56:15;;;;;;;0.50;0.50;;;;;;;10.76;40.20;98803.88;4965296;28;20086;-90
2022/05/21 06:01:30;;;;;;;0.55;0.55;;;;;;;10.79;41.42;98802.56;4993724;28;20057;-91
2022/05/21 06:03:57;;;;;;;0.60;0.60;;;;;;;10.83;39.96;98795.56;4962042;28;20054;-90
2022/05/21 06:06:25;;;;;;;0.50;0.50;;;;;;;11.03;38.83;98805.81;4993370;28;20394;-90
2022/05/21 06:08:52;;;;;;;0.50;0.50;;;;;;;11.04;38.58;98785.84;4997708;28;20575;-91
2022/05/21 06:11:20;;;;;;;0.50;0.50;;;;;;;10.89;38.62;98764.88;4996693;28;20113;-92
2022/05/21 06:13:48;;;;;;;0.50;0.50;;;;;;;10.97;38.80;98785.22;4995381;28;20448;-91
2022/05/21 06:16:16;;;;;;;0.60;0.60;;;;;;;11.06;38.66;98786.38;4995280;28;20054;-89
2022/05/21 06:18:44;;;;;;;0.50;0.50;;;;;;;11.14;39.50;98774.31;5002933;28;20050;-92
2022/05/21 06:21:11;;;;;;;0.50;0.50;;;;;;;10.99;39.11;98766.88;4971567;28;20050;-91
2022/05/21 06:23:38;;;;;;;0.50;0.50;;;;;;;10.96;39.16;98753.88;4994773;28;20050;-90
2022/05/21 06:26:06;;;;;;;0.50;0.50;;;;;;;11.10;38.61;98771.31;5014357;28;20053;-92
2022/05/21 06:28:33;;;;;;;0.50;0.50;;;;;;;11.38;39.31;98774.84;5003541;28;20042;-89
2022/05/21 06:31:01;;;;;;;0.50;0.50;;;;;;;11.49;38.75;98760.34;4997816;28;20097;-92
2022/05/21 06:33:29;;;;;;;0.50;0.50;;;;;;;11.74;37.03;98777.88;4995572;28;20054;-90
2022/05/21 06:36:10;;;;;;;0.50;0.50;;;;;;;11.53;36.10;98744.47;4993093;28;20050;-89
2022/05/21 06:38:38;;;;;;;0.50;0.50;;;;;;;11.61;35.73;98758.31;4977434;28;20054;-90
2022/05/21 06:41:06;;;;;;;0.50;0.50;;;;;;;11.56;36.08;98752.03;5000664;28;20046;-90
2022/05/21 06:43:34;;;;;;;0.50;0.50;;;;;;;11.49;36.04;98773.88;4996562;28;20489;-88
2022/05/21 06:46:01;;;;;;;0.50;0.50;;;;;;;11.31;36.82;98739.13;5004986;28;20054;-90
2022/05/21 06:48:29;;;;;;;0.50;0.50;;;;;;;11.58;36.48;98752.59;4993849;28;20264;-93
2022/05/21 06:51:05;;;;;;;0.50;0.50;;;;;;;11.69;33.82;98765.94;4978496;28;20453;-93
2022/05/21 06:53:35;;;;;;;0.50;0.50;;;;;;;11.24;33.61;98759.06;4964119;28;20115;-92
2022/05/21 06:56:12;;;;;;;0.50;0.50;;;;;;;11.28;34.00;98738.53;4994758;28;20089;-90
2022/05/21 06:58:39;;;;;;;0.50;0.50;;;;;;;11.41;34.40;98741.91;4996809;28;20377;-89
2022/05/21 07:01:06;;;;;;;0.50;0.50;;;;;;;11.27;34.14;98723.41;4996248;28;20048;-91
2022/05/21 07:03:34;;;;;;;0.60;0.60;;;;;;;11.46;35.00;98742.75;4967471;28;20044;-88
2022/05/21 07:12:17;;;;;;;0.60;0.60;;;;;;;11.94;34.02;98718.56;5535253;23;20130;-92
2022/05/21 07:14:45;;;;;;;0.57;0.57;;;;;;;11.97;33.35;98715.34;4974042;28;20722;-93
2022/05/21 07:17:39;;;;;;;0.57;0.57;;;;;;;12.16;33.64;98706.81;4986162;28;20046;-95
2022/05/21 07:20:49;;;;;;;0.50;0.50;;;;;;;12.54;33.13;98727.31;5098662;23;20077;-96
2022/05/21 07:26:09;;;;;;;0.50;0.50;;;;;;;13.14;32.67;98714.22;4886728;29;20083;-93
2022/05/21 07:28:38;;;;;;;0.50;0.50;;;;;;;13.35;31.38;98713.19;4886613;29;20144;-93
2022/05/21 07:31:26;;;;;;;0.50;0.50;;;;;;;12.96;31.46;98683.00;4838240;29;20053;-94
2022/05/21 07:34:09;;;;;;;0.50;0.50;;;;;;;13.10;31.76;98676.00;4836403;29;20059;-93
2022/05/21 07:37:07;;;;;;;0.50;0.50;;;;;;;13.07;30.77;98703.66;4968947;23;20054;-93
2022/05/21 07:39:35;;;;;;;0.60;0.60;;;;;;;12.89;31.50;98696.84;4954912;28;20039;-93
2022/05/21 07:42:19;;;;;;;0.60;0.60;;;;;;;12.78;30.96;98706.00;5006726;28;20102;-95
2022/05/21 07:44:47;;;;;;;0.60;0.60;;;;;;;12.63;30.97;98687.00;4994107;28;20077;-94
2022/05/21 07:47:14;;;;;;;0.60;0.60;;;;;;;12.91;30.59;98689.25;5007567;28;20043;-87
2022/05/21 07:49:41;;;;;;;0.60;0.60;;;;;;;12.99;30.09;98685.22;5006920;28;20031;-91
2022/05/21 07:52:09;;;;;;;0.60;0.60;;;;;;;13.31;30.16;98692.31;5001747;28;20054;-93
2022/05/21 07:54:37;;;;;;;0.60;0.60;;;;;;;13.33;30.13;98687.44;4980528;28;20517;-93
2022/05/21 07:57:05;;;;;;;0.60;0.60;;;;;;;13.61;30.34;98691.50;4995622;28;20130;-89
2022/05/21 07:59:32;;;;;;;0.70;0.70;;;;;;;13.91;30.98;98679.00;4977557;28;20054;-92
2022/05/21 08:02:17;;;;;;;0.70;0.70;;;;;;;14.23;30.83;98667.78;4997327;28;20051;-94
2022/05/21 08:05:04;;;;;;;0.70;0.70;;;;;;;14.12;30.71;98644.50;4979856;28;20174;-91
2022/05/21 08:07:32;;;;;;;0.70;0.70;;;;;;;14.30;30.29;98635.75;4975469;28;20169;-91
2022/05/21 08:10:02;;;;;;;0.70;0.70;;;;;;;14.55;30.32;98658.47;4976158;28;20097;-93
2022/05/21 08:12:55;;;;;;;0.60;0.60;;;;;;;14.60;29.88;98664.69;4996733;28;20062;-93
2022/05/21 08:15:22;;;;;;;0.60;0.60;;;;;;;14.59;29.71;98649.50;4965034;28;20052;-93
2022/05/21 08:17:53;;;;;;;0.70;0.70;;;;;;;14.82;29.67;98645.28;4962594;28;20101;-89
2022/05/21 08:20:20;;;;;;;0.60;0.60;;;;;;;15.02;29.39;98630.78;4973828;28;20054;-89
2022/05/21 08:28:19;;;;;;;0.70;0.70;;;;;;;15.92;28.18;98613.09;4966010;28;20466;-91
2022/05/21 08:30:48;;;;;;;0.70;0.70;;;;;;;16.13;27.04;98630.03;4977462;28;20515;-89
2022/05/21 08:33:18;;;;;;;0.70;0.70;;;;;;;16.42;26.95;98640.84;4992014;28;20051;-87
2022/05/21 08:35:45;;;;;;;0.70;0.70;;;;;;;16.64;26.14;98623.94;4975827;28;20078;-90
2022/05/21 08:38:15;;;;;;;0.70;0.70;;;;;;;16.95;25.19;98620.00;4991805;28;20054;-89
2022/05/21 08:40:58;;;;;;;0.70;0.70;;;;;;;17.18;25.06;98642.81;4994623;28;20050;-88
2022/05/21 08:44:15;;;;;;;0.68;0.68;;;;;;;17.45;26.00;98614.84;4993176;28;20155;-90
2022/05/21 08:47:00;;;;;;;0.70;0.70;;;;;;;17.39;25.66;98635.13;4954812;29;20598;-91
2022/05/21 08:49:36;;;;;;;0.70;0.70;;;;;;;17.76;25.85;98628.75;4964937;28;20109;-90
2022/05/21 08:52:25;;;;;;;0.70;0.70;;;;;;;18.02;24.60;98617.38;4990733;28;20151;-85
2022/05/21 08:54:55;;;;;;;0.70;0.70;;;;;;;17.30;25.18;98608.53;4973181;28;20137;-88
2022/05/21 08:57:27;;;;;;;0.70;0.70;;;;;;;17.77;24.58;98613.97;4941022;28;20057;-86
2022/05/21 08:59:59;;;;;;;0.70;0.70;;;;;;;17.96;24.05;98598.38;4973515;28;20047;-87
2022/05/21 09:02:35;;;;;;;0.70;0.70;;;;;;;18.13;24.76;98594.22;4973940;28;20057;-87
2022/05/21 09:05:06;;;;;;;0.70;0.70;;;;;;;18.51;24.85;98596.69;4973545;28;20118;-85
2022/05/21 09:08:18;;;;;;;0.70;0.70;;;;;;;19.14;24.04;98597.75;4972815;28;20063;-87
2022/05/21 09:10:48;;;;;;;0.68;0.68;;;;;;;19.45;22.49;98601.34;4957282;28;20549;-88
2022/05/21 09:13:44;;;;;;;0.60;0.60;;;;;;;19.43;22.86;98608.25;4991048;28;20395;-85
2022/05/21 09:19:04;;;;;;;0.60;0.60;;;;;;;19.80;22.76;98587.88;4973536;28;20059;-87
2022/05/21 09:21:34;;;;;;;0.60;0.60;;;;;;;19.92;22.53;98584.53;4989944;28;20046;-86
2022/05/21 09:24:07;;;;;;;0.68;0.68;;;;;;;20.40;22.33;98582.91;4974274;28;20399;-88
2022/05/21 09:26:50;;;;;;;0.60;0.60;;;;;;;19.39;21.47;98571.69;4974225;28;20085;-86
2022/05/21 09:29:26;;;;;;;0.60;0.60;;;;;;;18.95;22.59;98570.59;4976004;28;20491;-87
2022/05/21 09:31:54;;;;;;;0.60;0.60;;;;;;;19.59;22.96;98576.63;4966724;28;20062;-87
2022/05/21 09:34:32;;;;;;;0.68;0.68;;;;;;;20.12;21.54;98555.75;4992946;28;20113;-86
2022/05/21 09:37:00;;;;;;;0.70;0.70;;;;;;;20.51;21.10;98563.09;4993571;28;20051;-87
2022/05/21 09:39:31;;;;;;;0.65;0.65;;;;;;;20.41;21.26;98557.09;4975215;28;20065;-87
2022/05/21 09:45:32;;;;;;;0.70;0.70;;;;;;;21.21;21.65;98544.69;4959974;28;20042;-86
2022/05/21 09:48:05;;;;;;;0.60;0.60;;;;;;;21.75;20.20;98543.41;4973828;28;20158;-87
2022/05/21 09:50:56;;;;;;;0.60;0.60;;;;;;;20.89;20.60;98545.22;4974994;28;20069;-87
2022/05/21 09:53:28;;;;;;;0.70;0.70;;;;;;;20.55;20.87;98549.56;4974131;28;20050;-86
2022/05/21 09:55:57;;;;;;;0.70;0.70;;;;;;;20.78;20.89;98550.22;4956873;28;20086;-85
2022/05/21 09:58:25;;;;;;;0.70;0.70;;;;;;;21.09;20.56;98539.09;4974256;28;20403;-87
2022/05/21 10:00:54;;;;;;;0.70;0.70;;;;;;;21.50;19.56;98534.19;4956563;28;20526;-86
2022/05/21 10:03:38;;;;;;;0.70;0.70;;;;;;;21.32;19.52;98523.22;4957019;28;20467;-86
2022/05/21 10:06:34;;;;;;;0.70;0.70;;;;;;;21.84;19.65;98527.72;4973809;28;20059;-88
2022/05/21 10:12:22;;;;;;;0.70;0.70;;;;;;;22.39;19.03;98526.78;4976700;28;20141;-85
2022/05/21 10:15:13;;;;;;;0.70;0.70;;;;;;;22.25;18.74;98512.47;4959021;28;20059;-87
2022/05/21 10:17:42;;;;;;;0.70;0.70;;;;;;;22.10;18.49;98510.28;4956650;28;20059;-87
2022/05/21 10:20:16;;;;;;;0.70;0.70;;;;;;;21.91;19.26;98502.50;4956382;28;20061;-86
2022/05/21 10:23:10;;;;;;;0.70;0.70;;;;;;;22.56;18.81;98508.53;4973693;28;20105;-87
2022/05/21 10:25:49;;;;;;;0.70;0.70;;;;;;;22.82;18.63;98503.63;4948582;28;20097;-86
2022/05/21 10:28:39;;;;;;;0.70;0.70;;;;;;;21.87;19.09;98483.09;4956736;28;20051;-86
2022/05/21 10:31:20;;;;;;;0.70;0.70;;;;;;;21.77;19.26;98495.28;4973779;28;20061;-87
2022/05/21 10:34:17;;;;;;;0.77;0.77;;;;;;;21.76;19.49;98473.66;4973957;28;20117;-86
2022/05/21 10:36:47;;;;;;;0.70;0.70;;;;;;;22.62;18.70;98483.25;4973795;28;20054;-86
2022/05/21 10:39:34;;;;;;;0.70;0.70;;;;;;;22.65;18.81;98498.28;4973840;28;20071;-85
2022/05/21 10:42:11;;;;;;;0.70;0.70;;;;;;;23.18;18.32;98499.41;4973565;28;20465;-86
2022/05/21 10:44:47;;;;;;;0.70;0.70;;;;;;;23.38;18.52;98492.25;4973153;28;20114;-86
2022/05/21 10:47:15;;;;;;;0.70;0.70;;;;;;;24.08;18.15;98483.91;4973874;28;20466;-87
2022/05/21 10:49:49;;;;;;;0.70;0.70;;;;;;;24.61;17.77;98479.22;4973961;28;20047;-87
2022/05/21 10:52:42;;;;;;;0.60;0.60;;;;;;;25.24;17.46;98481.31;4956419;28;20478;-88
2022/05/21 10:55:18;;;;;;;0.70;0.70;;;;;;;25.21;16.45;98481.25;4973467;28;20085;-88
2022/05/21 10:58:11;;;;;;;0.60;0.60;;;;;;;24.88;17.26;98479.53;4955800;28;20077;-88
2022/05/21 11:00:45;;;;;;;0.63;0.63;;;;;;;24.95;17.00;98489.97;4955663;28;20051;-88
2022/05/21 11:03:32;;;;;;;0.60;0.60;;;;;;;24.77;17.86;98482.00;4956345;28;20054;-87
2022/05/21 11:06:17;;;;;;;0.70;0.70;;;;;;;24.56;17.17;98484.97;4956022;28;20078;-86
2022/05/21 11:09:05;;;;;;;0.70;0.70;;;;;;;24.52;17.90;98472.22;4956055;28;20050;-87
2022/05/21 11:12:03;;;;;;;0.68;0.68;;;;;;;25.59;16.85;98463.25;4973027;28;20043;-88
2022/05/21 11:14:33;;;;;;;0.60;0.60;;;;;;;24.81;16.28;98469.13;4955984;28;20054;-86
2022/05/21 11:17:25;;;;;;;0.60;0.60;;;;;;;24.98;16.72;98458.91;4984020;28;20046;-90
2022/05/21 11:19:57;;;;;;;0.60;0.60;;;;;;;25.22;17.26;98460.75;4992841;28;20073;-87
2022/05/21 11:22:29;;;;;;;0.60;0.60;;;;;;;25.74;16.48;98432.84;4992965;28;20609;-87
2022/05/21 11:25:31;;;;;;;0.60;0.60;;;;;;;26.10;16.70;98444.72;4967484;28;20434;-88
2022/05/21 11:28:44;;;;;;;0.60;0.60;;;;;;;26.38;16.44;98427.13;4974726;28;20082;-86
2022/05/21 11:37:19;;;;;;;0.60;0.60;;;;;;;26.83;16.00;98430.44;4974497;28;20077;-84
2022/05/21 11:39:40;;;;;;;0.50;0.50;;;;;;;27.22;15.21;98418.13;4971242;28;20058;-86
2022/05/21 11:42:14;;;;;;;0.60;0.60;;;;;;;25.46;15.54;98399.03;4970614;28;20050;-85
2022/05/21 11:45:02;;;;;;;0.60;0.60;;;;;;;25.03;15.98;98431.84;4970918;28;20046;-86
2022/05/21 11:47:36;;;;;;;0.60;0.60;;;;;;;23.74;16.93;98395.06;4987560;28;20050;-84
2022/05/21 11:50:29;;;;;;;0.70;0.70;;;;;;;24.15;16.83;98425.41;4986880;28;20128;-89
2022/05/21 11:53:01;;;;;;;0.70;0.70;;;;;;;24.12;16.27;98413.13;4991079;28;20056;-86
2022/05/21 11:55:30;;;;;;;0.70;0.70;;;;;;;23.66;16.24;98404.22;4975280;28;20077;-84
2022/05/21 11:58:02;;;;;;;0.70;0.70;;;;;;;23.14;16.77;98388.38;4974691;28;20053;-87
2022/05/21 12:00:30;;;;;;;0.70;0.70;;;;;;;24.90;16.35;98405.47;4991499;28;20057;-85
2022/05/21 12:03:06;;;;;;;0.70;0.70;;;;;;;26.26;15.67;98397.69;4990844;28;20459;-86
2022/05/21 12:05:46;;;;;;;0.60;0.60;;;;;;;26.95;15.32;98384.00;4990598;28;20142;-88
2022/05/21 12:08:18;;;;;;;0.60;0.60;;;;;;;27.15;15.26;98393.03;4995814;28;20141;-86
2022/05/21 12:10:51;;;;;;;0.60;0.60;;;;;;;27.94;14.54;98385.19;4977343;28;20053;-83
2022/05/21 12:13:21;;;;;;;0.50;0.50;;;;;;;28.15;14.19;98395.78;4995321;28;20074;-85
2022/05/21 12:15:51;;;;;;;0.50;0.50;;;;;;;28.15;14.90;98382.69;4975719;28;20421;-84
2022/05/21 12:18:41;;;;;;;0.50;0.50;;;;;;;28.72;14.26;98371.50;4995082;28;20054;-86
2022/05/21 12:21:34;;;;;;;;;;;;;;;29.02;14.14;98385.28;4980140;28;20074;-87
2022/05/21 12:24:08;;;;;;;0.50;0.50;;;;;;;28.76;13.92;98383.41;4985811;28;19932;-86
2022/05/21 12:26:39;;;;;;;0.50;0.50;;;;;;;28.82;13.58;98370.81;4995248;28;20061;-86
2022/05/21 12:29:09;;;;;;;0.50;0.50;;;;;;;28.96;13.39;98370.91;4976166;28;20430;-86
2022/05/21 12:31:38;;;;;;;0.50;0.50;;;;;;;28.56;13.66;98379.25;4975678;28;20402;-84
2022/05/21 12:34:19;;;;;;;0.50;0.50;;;;;;;27.40;14.45;98363.00;4997313;28;20050;-86
2022/05/21 12:37:18;;;;;;;0.20;0.20;;;;;;;26.09;15.18;98384.28;5011501;28;20535;-84
2022/05/21 12:40:00;;;;;;;0.52;0.52;;;;;;;25.37;15.89;98384.59;4977479;28;20065;-84
2022/05/21 12:42:46;;;;;;;0.40;0.40;;;;;;;26.45;15.20;98371.16;4976086;28;20073;-82